createdAt,value
2022-11-30T00:00:33.708Z,47.7
2022-11-30T00:01:47.075Z,47.7
2022-11-30T00:02:49.883Z,47.7
2022-11-30T00:04:03.594Z,47.7
2022-11-30T00:05:16.213Z,47.7
2022-11-30T00:06:19.594Z,47.7
2022-11-30T00:07:32.214Z,47.8
2022-11-30T00:08:45.617Z,47.7
2022-11-30T00:09:48.315Z,47.7
2022-11-30T00:11:02.079Z,47.7
2022-11-30T00:12:14.715Z,47.8
2022-11-30T00:13:28.088Z,47.7
2022-11-30T00:14:30.785Z,47.8
2022-11-30T00:15:44.088Z,47.8
2022-11-30T00:16:56.749Z,47.8
2022-11-30T00:18:00.116Z,47.8
2022-11-30T00:19:12.712Z,47.8
2022-11-30T00:20:26.140Z,47.8
2022-11-30T00:21:28.832Z,47.8
2022-11-30T00:22:42.100Z,47.8
2022-11-30T00:23:54.711Z,47.7
2022-11-30T00:25:08.125Z,47.8
2022-11-30T00:26:10.899Z,47.8
2022-11-30T00:27:24.082Z,47.8
2022-11-30T00:28:36.717Z,47.8
2022-11-30T00:29:40.092Z,47.8
2022-11-30T00:30:52.743Z,47.8
2022-11-30T00:32:06.093Z,47.8
2022-11-30T00:33:08.777Z,47.8
2022-11-30T00:34:22.113Z,47.8
2022-11-30T00:35:34.742Z,47.8
2022-11-30T00:36:48.086Z,47.8
2022-11-30T00:37:50.745Z,47.8
2022-11-30T00:39:04.079Z,47.8
2022-11-30T00:40:16.728Z,47.8
2022-11-30T00:41:20.107Z,47.8
2022-11-30T00:42:32.739Z,47.8
2022-11-30T00:43:46.129Z,47.8
2022-11-30T00:44:48.963Z,47.8
2022-11-30T00:46:02.627Z,47.8
2022-11-30T00:47:15.320Z,47.9
2022-11-30T00:48:28.615Z,47.8
2022-11-30T00:49:31.286Z,47.8
2022-11-30T00:50:44.611Z,47.8
2022-11-30T00:51:57.247Z,47.8
2022-11-30T00:53:00.632Z,47.8
2022-11-30T00:54:13.295Z,47.9
2022-11-30T00:55:26.628Z,47.8
2022-11-30T00:56:29.304Z,47.8
2022-11-30T00:57:42.630Z,47.8
2022-11-30T00:58:55.250Z,47.8
2022-11-30T01:00:08.627Z,47.8
2022-11-30T01:01:11.538Z,47.8
2022-11-30T01:02:25.206Z,47.8
2022-11-30T01:03:38.145Z,47.9
2022-11-30T01:04:41.608Z,47.8
2022-11-30T01:05:54.232Z,47.8
2022-11-30T01:07:07.606Z,47.8
2022-11-30T01:08:10.282Z,47.9
2022-11-30T01:09:23.590Z,47.9
2022-11-30T01:10:36.291Z,47.8
2022-11-30T01:11:51.128Z,47.8
2022-11-30T01:12:53.805Z,47.9
2022-11-30T01:14:07.634Z,47.8
2022-11-30T01:15:10.306Z,47.8
2022-11-30T01:16:23.659Z,47.8
2022-11-30T01:17:36.421Z,47.8
2022-11-30T01:18:50.119Z,47.8
2022-11-30T01:19:52.828Z,47.8
2022-11-30T01:21:06.131Z,47.8
2022-11-30T01:22:18.770Z,47.9
2022-11-30T01:23:22.634Z,47.8
2022-11-30T01:24:35.270Z,47.8
2022-11-30T01:25:48.609Z,47.9
2022-11-30T01:26:51.317Z,47.8
2022-11-30T01:28:04.591Z,47.8
2022-11-30T01:29:17.218Z,47.8
2022-11-30T01:30:30.673Z,47.8
2022-11-30T01:31:33.425Z,47.9
2022-11-30T01:32:47.092Z,47.8
2022-11-30T01:33:59.742Z,47.8
2022-11-30T01:35:03.119Z,47.9
2022-11-30T01:36:15.774Z,47.9
2022-11-30T01:37:29.118Z,47.9
2022-11-30T01:38:31.802Z,47.9
2022-11-30T01:39:45.144Z,47.9
2022-11-30T01:40:57.783Z,47.8
2022-11-30T01:42:11.109Z,47.8
2022-11-30T01:43:13.769Z,47.8
2022-11-30T01:44:27.127Z,47.9
2022-11-30T01:45:39.738Z,47.8
2022-11-30T01:46:43.133Z,47.8
2022-11-30T01:47:55.747Z,47.8
2022-11-30T01:49:09.117Z,47.8
2022-11-30T01:50:21.807Z,47.9
2022-11-30T01:51:25.104Z,47.8
2022-11-30T01:52:37.731Z,47.8
2022-11-30T01:53:51.124Z,47.8
2022-11-30T01:54:53.898Z,47.8
2022-11-30T01:56:07.631Z,47.8
2022-11-30T01:57:20.256Z,47.8
2022-11-30T01:58:23.629Z,47.8
2022-11-30T01:59:36.245Z,47.9
2022-11-30T02:00:49.618Z,47.8
2022-11-30T02:02:02.247Z,47.9
2022-11-30T02:03:06.143Z,47.8
2022-11-30T02:04:18.781Z,47.8
2022-11-30T02:05:32.161Z,47.8
2022-11-30T02:06:34.860Z,47.8
2022-11-30T02:07:48.263Z,47.8
2022-11-30T02:09:01.024Z,47.9
2022-11-30T02:10:04.632Z,47.8
2022-11-30T02:11:17.268Z,47.8
2022-11-30T02:12:30.624Z,47.8
2022-11-30T02:13:33.286Z,47.8
2022-11-30T02:16:14.651Z,47.8
2022-11-30T02:17:07.643Z,47.9
2022-11-30T02:18:21.182Z,47.8
2022-11-30T02:19:23.907Z,47.8
2022-11-30T02:20:37.131Z,47.8
2022-11-30T02:21:49.763Z,47.8
2022-11-30T02:23:03.639Z,47.8
2022-11-30T02:24:06.367Z,47.7
2022-11-30T02:25:20.197Z,47.8
2022-11-30T02:26:32.837Z,47.8
2022-11-30T02:27:36.145Z,47.8
2022-11-30T02:28:48.890Z,47.8
2022-11-30T02:30:02.178Z,47.8
2022-11-30T02:31:04.935Z,47.8
2022-11-30T02:32:18.647Z,47.8
2022-11-30T02:33:31.409Z,47.8
2022-11-30T02:34:44.854Z,47.8
2022-11-30T02:35:53.067Z,47.8
2022-11-30T02:36:58.147Z,47.8
2022-11-30T02:38:10.815Z,47.8
2022-11-30T02:39:24.162Z,47.8
2022-11-30T02:40:26.854Z,47.8
2022-11-30T02:41:40.126Z,47.8
2022-11-30T02:42:52.792Z,47.8
2022-11-30T02:43:56.158Z,47.8
2022-11-30T02:45:08.786Z,47.8
2022-11-30T02:46:19.666Z,47.8
2022-11-30T02:47:32.449Z,47.8
2022-11-30T02:48:46.138Z,47.8
2022-11-30T02:49:48.847Z,47.8
2022-11-30T02:51:02.142Z,47.8
2022-11-30T02:52:14.788Z,47.8
2022-11-30T02:53:18.151Z,47.9
2022-11-30T02:54:30.813Z,47.8
2022-11-30T02:55:44.192Z,47.8
2022-11-30T02:56:46.924Z,47.8
2022-11-30T02:58:00.152Z,47.9
2022-11-30T02:59:12.789Z,47.8
2022-11-30T03:00:26.126Z,47.9
2022-11-30T03:01:28.881Z,47.8
2022-11-30T03:02:42.714Z,47.8
2022-11-30T03:03:55.459Z,47.8
2022-11-30T03:04:59.146Z,47.8
2022-11-30T03:06:11.789Z,47.8
2022-11-30T03:07:25.174Z,47.8
2022-11-30T03:08:27.912Z,47.8
2022-11-30T03:09:41.159Z,47.8
2022-11-30T03:10:53.837Z,47.8
2022-11-30T03:11:57.178Z,47.8
2022-11-30T03:13:09.818Z,47.8
2022-11-30T03:14:23.161Z,47.8
2022-11-30T03:15:35.898Z,47.8
2022-11-30T03:16:39.654Z,47.8
2022-11-30T03:17:52.397Z,47.9
2022-11-30T03:19:05.669Z,47.8
2022-11-30T03:20:08.409Z,47.8
2022-11-30T03:21:21.633Z,47.8
2022-11-30T03:22:34.382Z,47.8
2022-11-30T03:23:37.638Z,47.8
2022-11-30T03:24:50.469Z,47.8
2022-11-30T03:26:04.161Z,47.9
2022-11-30T03:27:06.892Z,47.9
2022-11-30T03:28:20.160Z,47.9
2022-11-30T03:29:32.856Z,47.8
2022-11-30T03:30:46.201Z,47.9
2022-11-30T03:31:49.105Z,47.9
2022-11-30T03:33:02.631Z,47.9
2022-11-30T03:34:15.330Z,47.9
2022-11-30T03:35:18.687Z,47.9
2022-11-30T03:36:31.326Z,47.9
2022-11-30T03:37:44.685Z,47.9
2022-11-30T03:38:57.331Z,47.9
2022-11-30T03:40:00.671Z,47.9
2022-11-30T03:41:13.341Z,47.9
2022-11-30T03:42:26.660Z,47.9
2022-11-30T03:43:29.382Z,47.9
2022-11-30T03:44:42.694Z,47.9
2022-11-30T03:45:55.321Z,47.9
2022-11-30T03:47:08.672Z,47.9
2022-11-30T03:48:11.350Z,47.9
2022-11-30T03:49:25.182Z,47.9
2022-11-30T03:50:37.867Z,47.9
2022-11-30T03:51:41.205Z,47.9
2022-11-30T03:52:53.857Z,47.9
2022-11-30T03:54:07.176Z,47.9
2022-11-30T03:55:09.886Z,47.9
2022-11-30T03:56:23.189Z,47.9
2022-11-30T03:57:35.893Z,47.9
2022-11-30T03:58:49.197Z,47.9
2022-11-30T03:59:51.920Z,47.9
2022-11-30T04:01:05.193Z,47.9
2022-11-30T04:02:17.878Z,47.9
2022-11-30T04:03:31.170Z,47.9
2022-11-30T04:04:34.012Z,48.0
2022-11-30T04:05:57.176Z,48.0
2022-11-30T04:06:49.930Z,47.9
2022-11-30T04:08:03.311Z,47.9
2022-11-30T04:09:15.950Z,47.9
2022-11-30T04:10:29.747Z,47.9
2022-11-30T04:11:32.461Z,47.9
2022-11-30T04:12:45.835Z,47.8
2022-11-30T04:13:59.057Z,47.9
2022-11-30T04:15:02.982Z,47.9
2022-11-30T04:16:15.804Z,47.9
2022-11-30T04:17:29.202Z,47.8
2022-11-30T04:18:41.897Z,47.9
2022-11-30T04:19:45.783Z,47.9
2022-11-30T04:20:59.297Z,47.9
2022-11-30T04:22:03.166Z,47.9
2022-11-30T04:23:15.805Z,47.9
2022-11-30T04:24:29.185Z,47.9
2022-11-30T04:25:31.896Z,47.9
2022-11-30T04:26:45.714Z,47.9
2022-11-30T04:28:18.403Z,47.9
2022-11-30T04:29:04.629Z,47.9
2022-11-30T04:30:17.579Z,47.9
2022-11-30T04:31:31.219Z,47.9
2022-11-30T04:32:34.172Z,47.9
2022-11-30T04:33:47.668Z,47.9
2022-11-30T04:35:00.324Z,47.9
2022-11-30T04:36:04.179Z,47.9
2022-11-30T04:37:16.840Z,47.9
2022-11-30T04:38:40.278Z,47.9
2022-11-30T04:39:33.124Z,47.9
2022-11-30T04:40:46.744Z,47.9
2022-11-30T04:41:59.406Z,47.9
2022-11-30T04:43:02.711Z,47.9
2022-11-30T04:44:15.543Z,47.9
2022-11-30T04:45:35.056Z,47.9
2022-11-30T04:46:38.344Z,48.0
2022-11-30T04:47:52.214Z,47.9
2022-11-30T04:48:54.905Z,48.0
2022-11-30T04:50:09.706Z,47.9
2022-11-30T04:51:22.367Z,47.9
2022-11-30T04:52:26.200Z,48.0
2022-11-30T04:53:38.945Z,47.9
2022-11-30T04:54:52.707Z,48.0
2022-11-30T04:55:55.457Z,48.0
2022-11-30T04:57:09.685Z,48.0
2022-11-30T04:58:22.505Z,48.0
2022-11-30T04:59:45.842Z,48.0
2022-11-30T05:00:38.835Z,48.0
2022-11-30T05:01:52.499Z,48.0
2022-11-30T05:02:55.304Z,48.0
2022-11-30T05:04:08.748Z,48.0
2022-11-30T05:05:21.512Z,48.0
2022-11-30T05:06:25.211Z,48.0
2022-11-30T05:07:37.952Z,48.0
2022-11-30T05:08:52.184Z,48.0
2022-11-30T05:09:54.925Z,48.0
2022-11-30T05:11:08.667Z,48.0
2022-11-30T05:12:21.356Z,48.1
2022-11-30T05:13:24.707Z,48.1
2022-11-30T05:14:38.077Z,48.2
2022-11-30T05:15:51.733Z,48.2
2022-11-30T05:16:54.642Z,48.2
2022-11-30T05:18:08.389Z,48.3
2022-11-30T05:19:21.027Z,48.3
2022-11-30T05:20:25.188Z,48.3
2022-11-30T05:21:41.343Z,48.4
2022-11-30T05:22:49.174Z,48.4
2022-11-30T05:24:01.839Z,48.4
2022-11-30T05:25:05.786Z,48.5
2022-11-30T05:26:18.500Z,48.5
2022-11-30T05:27:32.206Z,48.5
2022-11-30T05:28:35.188Z,48.5
2022-11-30T05:29:48.717Z,48.6
2022-11-30T05:31:01.426Z,48.6
2022-11-30T05:32:15.196Z,48.6
2022-11-30T05:33:17.923Z,48.6
2022-11-30T05:34:37.663Z,48.6
2022-11-30T05:35:42.367Z,48.7
2022-11-30T05:38:12.468Z,48.7
2022-11-30T05:39:05.260Z,48.7
2022-11-30T05:40:19.068Z,48.7
2022-11-30T05:41:31.891Z,48.7
2022-11-30T05:42:45.631Z,48.7
2022-11-30T05:43:48.358Z,48.7
2022-11-30T05:45:02.123Z,48.7
2022-11-30T05:46:04.894Z,48.7
2022-11-30T05:47:18.688Z,48.7
2022-11-30T05:48:31.443Z,48.7
2022-11-30T05:49:45.063Z,48.7
2022-11-30T05:50:47.783Z,48.8
2022-11-30T05:52:01.057Z,48.8
2022-11-30T05:53:13.748Z,48.8
2022-11-30T05:54:17.586Z,48.8
2022-11-30T05:55:30.352Z,48.8
2022-11-30T05:56:44.082Z,49.0
2022-11-30T05:57:46.763Z,49.1
2022-11-30T05:59:00.082Z,47.9
2022-11-30T06:00:12.699Z,46.3
2022-11-30T06:01:16.067Z,45.0
2022-11-30T06:02:28.747Z,44.0
2022-11-30T06:03:42.585Z,42.9
2022-11-30T06:04:45.470Z,42.9
2022-11-30T06:05:59.069Z,42.7
2022-11-30T06:07:11.574Z,42.1
2022-11-30T06:08:25.055Z,41.4
2022-11-30T06:09:27.591Z,41.0
2022-11-30T06:10:41.056Z,40.2
2022-11-30T06:11:53.483Z,39.7
2022-11-30T06:12:57.049Z,39.5
2022-11-30T06:14:09.502Z,39.0
2022-11-30T06:15:23.097Z,38.7
2022-11-30T06:16:25.679Z,38.6
2022-11-30T06:17:39.087Z,38.7
2022-11-30T06:18:51.556Z,38.5
2022-11-30T06:20:04.562Z,38.6
2022-11-30T06:21:07.178Z,38.7
2022-11-30T06:22:20.582Z,38.6
2022-11-30T06:23:32.996Z,38.7
2022-11-30T06:24:36.074Z,38.8
2022-11-30T06:25:48.433Z,38.9
2022-11-30T06:27:01.583Z,38.9
2022-11-30T06:28:13.984Z,39.0
2022-11-30T06:29:17.094Z,39.0
2022-11-30T06:30:29.474Z,39.0
2022-11-30T06:31:42.643Z,39.1
2022-11-30T06:32:45.284Z,39.1
2022-11-30T06:33:58.572Z,39.2
2022-11-30T06:35:10.959Z,39.2
2022-11-30T06:36:24.085Z,39.2
2022-11-30T06:37:26.539Z,39.2
2022-11-30T06:38:39.601Z,39.1
2022-11-30T06:40:06.523Z,39.2
2022-11-30T06:41:00.594Z,39.3
2022-11-30T06:42:12.968Z,39.3
2022-11-30T06:43:16.053Z,39.3
2022-11-30T06:44:28.367Z,39.4
2022-11-30T06:45:41.604Z,39.4
2022-11-30T06:46:44.116Z,39.3
2022-11-30T06:47:57.113Z,39.3
2022-11-30T06:49:09.493Z,39.4
2022-11-30T06:50:22.556Z,39.5
2022-11-30T06:51:24.988Z,39.4
2022-11-30T06:52:38.093Z,39.4
2022-11-30T06:53:50.462Z,39.4
2022-11-30T06:54:54.196Z,39.5
2022-11-30T06:56:10.019Z,39.5
2022-11-30T06:57:14.585Z,39.5
2022-11-30T06:58:26.907Z,39.6
2022-11-30T06:59:40.071Z,39.6
2022-11-30T07:00:42.529Z,39.6
2022-11-30T07:01:55.597Z,39.7
2022-11-30T07:03:07.903Z,39.6
2022-11-30T07:04:21.120Z,39.6
2022-11-30T07:05:23.661Z,39.6
2022-11-30T07:06:36.575Z,39.6
2022-11-30T07:07:48.922Z,39.6
2022-11-30T07:08:52.085Z,39.6
2022-11-30T07:10:04.387Z,39.6
2022-11-30T07:11:19.084Z,39.7
2022-11-30T07:12:21.491Z,39.8
2022-11-30T07:13:34.558Z,39.7
2022-11-30T07:14:47.309Z,39.7
2022-11-30T07:16:00.572Z,39.7
2022-11-30T07:17:02.945Z,39.8
2022-11-30T07:18:16.081Z,39.7
2022-11-30T07:19:28.355Z,39.8
2022-11-30T07:20:31.564Z,39.8
2022-11-30T07:21:43.835Z,39.8
2022-11-30T07:22:57.100Z,39.8
2022-11-30T07:24:09.378Z,39.8
2022-11-30T07:25:12.588Z,39.8
2022-11-30T07:26:24.837Z,39.8
2022-11-30T07:27:38.137Z,39.8
2022-11-30T07:28:40.499Z,39.8
2022-11-30T07:29:53.646Z,39.9
2022-11-30T07:31:06.114Z,39.7
2022-11-30T07:32:19.127Z,39.2
2022-11-30T07:33:21.714Z,38.9
2022-11-30T07:34:34.571Z,38.3
2022-11-30T07:35:46.909Z,38.3
2022-11-30T07:37:00.113Z,38.3
2022-11-30T07:38:08.221Z,38.3
2022-11-30T07:39:13.107Z,38.4
2022-11-30T07:40:25.368Z,38.4
2022-11-30T07:41:39.574Z,38.5
2022-11-30T07:43:01.812Z,38.6
2022-11-30T07:43:55.574Z,38.7
2022-11-30T07:45:07.840Z,38.7
2022-11-30T07:46:11.678Z,38.7
2022-11-30T07:47:24.139Z,38.7
2022-11-30T07:48:37.147Z,38.7
2022-11-30T07:49:39.618Z,38.7
2022-11-30T07:50:52.590Z,38.8
2022-11-30T07:52:05.034Z,38.8
2022-11-30T07:53:18.086Z,38.8
2022-11-30T07:54:20.527Z,38.8
2022-11-30T07:55:33.611Z,38.9
2022-11-30T07:57:05.418Z,38.9
2022-11-30T07:58:01.618Z,39.0
2022-11-30T07:59:04.282Z,39.0
2022-11-30T08:00:17.615Z,39.0
2022-11-30T08:01:20.101Z,39.1
2022-11-30T08:02:34.693Z,39.1
2022-11-30T08:03:47.090Z,39.2
2022-11-30T08:04:50.506Z,39.1
2022-11-30T08:06:03.112Z,39.2
2022-11-30T08:07:36.179Z,39.2
2022-11-30T08:08:18.971Z,39.3
2022-11-30T08:09:31.587Z,39.3
2022-11-30T08:10:45.291Z,39.3
2022-11-30T08:11:57.517Z,39.3
2022-11-30T08:13:00.576Z,39.4
2022-11-30T08:14:12.872Z,39.3
2022-11-30T08:15:32.238Z,39.4
2022-11-30T08:16:35.652Z,39.4
2022-11-30T08:17:49.081Z,39.4
2022-11-30T08:18:51.493Z,39.4
2022-11-30T08:20:04.601Z,39.5
2022-11-30T08:21:16.845Z,39.5
2022-11-30T08:22:20.640Z,39.4
2022-11-30T08:23:33.149Z,39.5
2022-11-30T08:24:47.932Z,39.5
2022-11-30T08:26:00.560Z,39.5
2022-11-30T08:27:04.086Z,39.5
2022-11-30T08:28:16.368Z,39.5
2022-11-30T08:29:19.610Z,39.6
2022-11-30T08:30:32.779Z,39.6
2022-11-30T08:31:46.138Z,39.6
2022-11-30T08:32:48.469Z,39.6
2022-11-30T08:34:01.620Z,39.6
2022-11-30T08:35:13.850Z,39.7
2022-11-30T08:36:27.131Z,39.7
2022-11-30T08:37:29.551Z,39.7
2022-11-30T08:38:42.604Z,39.6
2022-11-30T08:39:54.981Z,39.7
2022-11-30T08:40:58.231Z,39.7
2022-11-30T08:42:10.589Z,39.7
2022-11-30T08:43:23.613Z,39.7
2022-11-30T08:44:35.822Z,39.8
2022-11-30T08:45:39.113Z,39.7
2022-11-30T08:46:52.317Z,39.8
2022-11-30T08:48:05.597Z,39.8
2022-11-30T08:49:21.137Z,39.8
2022-11-30T08:50:25.634Z,39.8
2022-11-30T08:51:27.967Z,39.8
2022-11-30T08:52:41.588Z,39.7
2022-11-30T08:53:53.812Z,39.7
2022-11-30T08:54:57.125Z,39.8
2022-11-30T08:56:09.450Z,39.7
2022-11-30T08:57:22.607Z,39.7
2022-11-30T08:58:34.864Z,39.8
2022-11-30T08:59:38.154Z,39.8
2022-11-30T09:02:03.152Z,39.8
2022-11-30T09:03:15.541Z,39.8
2022-11-30T09:04:18.639Z,39.8
2022-11-30T09:05:30.939Z,39.9
2022-11-30T09:06:44.130Z,39.9
2022-11-30T09:07:46.613Z,39.9
2022-11-30T09:09:00.154Z,39.9
2022-11-30T09:10:12.367Z,39.9
2022-11-30T09:11:25.625Z,40.0
2022-11-30T09:12:27.953Z,39.9
2022-11-30T09:13:41.205Z,39.9
2022-11-30T09:14:58.087Z,39.9
2022-11-30T09:16:02.672Z,39.9
2022-11-30T09:17:05.133Z,39.9
2022-11-30T09:18:18.137Z,39.9
2022-11-30T09:19:30.410Z,40.0
2022-11-30T09:20:43.635Z,39.9
2022-11-30T09:21:51.494Z,39.9
2022-11-30T09:22:55.649Z,39.9
2022-11-30T09:24:07.847Z,39.9
2022-11-30T09:25:21.118Z,39.9
2022-11-30T09:26:23.427Z,39.9
2022-11-30T09:27:36.637Z,39.9
2022-11-30T09:28:48.846Z,39.9
2022-11-30T09:30:02.114Z,39.9
2022-11-30T09:31:04.797Z,39.9
2022-11-30T09:32:18.620Z,40.0
2022-11-30T09:33:30.827Z,39.9
2022-11-30T09:34:34.110Z,39.9
2022-11-30T09:35:56.161Z,40.0
2022-11-30T09:36:59.661Z,39.9
2022-11-30T09:38:12.099Z,39.9
2022-11-30T09:39:25.312Z,39.9
2022-11-30T09:40:32.400Z,39.9
2022-11-30T09:41:37.161Z,39.9
2022-11-30T09:42:49.362Z,39.9
2022-11-30T09:44:02.715Z,39.9
2022-11-30T09:45:05.309Z,39.9
2022-11-30T09:46:18.698Z,39.9
2022-11-30T09:47:32.245Z,39.9
2022-11-30T09:48:36.135Z,39.9
2022-11-30T09:49:48.419Z,39.9
2022-11-30T09:51:01.740Z,39.9
2022-11-30T09:52:04.120Z,40.0
2022-11-30T09:53:17.174Z,40.0
2022-11-30T09:54:29.351Z,40.0
2022-11-30T09:55:33.649Z,40.0
2022-11-30T09:56:46.011Z,40.0
2022-11-30T09:57:59.134Z,40.0
2022-11-30T09:59:01.723Z,40.0
2022-11-30T10:00:14.635Z,40.0
2022-11-30T10:01:30.640Z,40.0
2022-11-30T10:02:36.708Z,40.0
2022-11-30T10:03:49.168Z,40.0
2022-11-30T10:04:52.641Z,40.0
2022-11-30T10:06:05.016Z,40.0
2022-11-30T10:07:18.192Z,40.0
2022-11-30T10:08:20.653Z,40.1
2022-11-30T10:09:34.343Z,40.0
2022-11-30T10:10:46.628Z,40.1
2022-11-30T10:12:00.155Z,40.1
2022-11-30T10:13:03.018Z,40.2
2022-11-30T10:14:16.156Z,40.1
2022-11-30T10:15:28.422Z,40.1
2022-11-30T10:16:31.746Z,40.1
2022-11-30T10:17:44.094Z,40.0
2022-11-30T10:18:57.144Z,40.1
2022-11-30T10:20:09.317Z,40.1
2022-11-30T10:21:12.648Z,40.0
2022-11-30T10:22:24.879Z,40.1
2022-11-30T10:23:38.147Z,40.1
2022-11-30T10:24:40.455Z,40.1
2022-11-30T10:25:53.620Z,40.1
2022-11-30T10:27:05.789Z,40.1
2022-11-30T10:28:45.516Z,40.1
2022-11-30T10:29:19.611Z,40.1
2022-11-30T10:30:31.758Z,40.2
2022-11-30T10:31:44.634Z,40.1
2022-11-30T10:32:56.898Z,40.0
2022-11-30T10:34:00.165Z,40.1
2022-11-30T10:35:12.482Z,40.1
2022-11-30T10:36:25.692Z,40.1
2022-11-30T10:37:37.985Z,40.0
2022-11-30T10:38:41.683Z,40.1
2022-11-30T10:39:53.885Z,40.1
2022-11-30T10:41:07.183Z,40.1
2022-11-30T10:42:09.477Z,40.1
2022-11-30T10:44:41.337Z,40.1
2022-11-30T10:45:43.708Z,40.1
2022-11-30T10:46:56.763Z,40.1
2022-11-30T10:47:59.168Z,40.1
2022-11-30T10:49:12.284Z,40.1
2022-11-30T10:50:24.569Z,40.1
2022-11-30T10:51:37.900Z,40.1
2022-11-30T10:52:40.285Z,40.1
2022-11-30T10:53:53.269Z,40.1
2022-11-30T10:55:05.581Z,40.0
2022-11-30T10:56:08.756Z,39.9
2022-11-30T10:57:21.017Z,40.0
2022-11-30T10:58:34.424Z,40.0
2022-11-30T10:59:36.926Z,40.0
2022-11-30T11:00:49.834Z,40.0
2022-11-30T11:02:02.162Z,40.0
2022-11-30T11:03:15.270Z,40.0
2022-11-30T11:04:17.639Z,40.0
2022-11-30T11:05:30.745Z,40.0
2022-11-30T11:06:43.030Z,40.0
2022-11-30T11:08:16.345Z,40.0
2022-11-30T11:08:59.044Z,40.0
2022-11-30T11:10:11.279Z,40.0
2022-11-30T11:11:24.290Z,40.0
2022-11-30T11:12:26.580Z,39.9
2022-11-30T11:13:39.767Z,40.0
2022-11-30T11:14:51.977Z,39.9
2022-11-30T11:16:05.453Z,39.9
2022-11-30T11:17:07.922Z,39.9
2022-11-30T11:18:20.749Z,39.9
2022-11-30T11:19:32.941Z,39.9
2022-11-30T11:20:45.870Z,39.8
2022-11-30T11:21:48.135Z,39.8
2022-11-30T11:23:01.323Z,39.8
2022-11-30T11:24:13.416Z,39.8
2022-11-30T11:25:16.304Z,39.8
2022-11-30T11:26:28.502Z,39.8
2022-11-30T11:27:44.906Z,39.8
2022-11-30T11:28:47.588Z,39.7
2022-11-30T11:30:00.784Z,39.7
2022-11-30T11:31:12.986Z,39.7
2022-11-30T11:32:16.254Z,39.7
2022-11-30T11:33:28.436Z,39.7
2022-11-30T11:34:42.136Z,39.5
2022-11-30T11:35:46.720Z,39.5
2022-11-30T11:36:59.744Z,39.5
2022-11-30T11:38:11.949Z,39.5
2022-11-30T11:39:15.796Z,39.4
2022-11-30T11:40:28.002Z,39.5
2022-11-30T11:41:40.771Z,39.5
2022-11-30T11:42:53.023Z,39.5
2022-11-30T11:43:56.273Z,39.5
2022-11-30T11:45:08.493Z,39.5
2022-11-30T11:46:21.804Z,39.5
2022-11-30T11:47:24.282Z,39.5
2022-11-30T11:48:37.262Z,39.5
2022-11-30T11:49:49.697Z,39.5
2022-11-30T11:51:07.518Z,39.5
2022-11-30T11:52:10.575Z,39.5
2022-11-30T11:53:13.805Z,39.5
2022-11-30T11:54:26.106Z,39.5
2022-11-30T11:55:39.300Z,39.5
2022-11-30T11:56:41.605Z,39.6
2022-11-30T11:57:55.019Z,39.5
2022-11-30T11:59:07.263Z,39.6
2022-11-30T12:00:20.312Z,39.5
2022-11-30T12:02:40.803Z,39.6
2022-11-30T12:03:43.251Z,39.6
2022-11-30T12:04:56.389Z,39.6
2022-11-30T12:06:08.598Z,39.6
2022-11-30T12:07:15.053Z,39.6
2022-11-30T12:08:28.983Z,39.6
2022-11-30T12:09:32.308Z,39.6
2022-11-30T12:10:52.254Z,39.6
2022-11-30T12:11:56.264Z,39.6
2022-11-30T12:13:08.443Z,39.7
2022-11-30T12:14:11.760Z,39.7
2022-11-30T12:15:24.009Z,39.7
2022-11-30T12:16:37.378Z,39.7
2022-11-30T12:17:39.898Z,39.7
2022-11-30T12:18:52.767Z,39.8
2022-11-30T12:20:05.227Z,39.7
2022-11-30T12:21:18.264Z,39.8
2022-11-30T12:22:30.397Z,39.8
2022-11-30T12:23:33.766Z,39.9
2022-11-30T12:24:46.306Z,39.9
2022-11-30T12:25:49.774Z,38.4
2022-11-30T12:27:02.067Z,37.9
2022-11-30T12:28:15.273Z,35.9
2022-11-30T12:29:17.588Z,35.6
2022-11-30T12:30:30.895Z,33.9
2022-11-30T12:31:44.301Z,36.5
2022-11-30T12:32:47.780Z,35.7
2022-11-30T12:34:00.146Z,32.8
2022-11-30T12:35:13.273Z,33.6
2022-11-30T12:36:25.613Z,36.4
2022-11-30T12:37:28.777Z,36.8
2022-11-30T12:38:41.156Z,37.2
2022-11-30T12:39:54.284Z,37.4
2022-11-30T12:40:56.753Z,37.6
2022-11-30T12:42:09.798Z,37.8
2022-11-30T12:43:22.142Z,37.8
2022-11-30T12:44:40.274Z,37.8
2022-11-30T12:45:44.911Z,37.9
2022-11-30T12:46:48.355Z,38.1
2022-11-30T12:48:00.795Z,38.0
2022-11-30T12:49:13.855Z,38.1
2022-11-30T12:50:16.330Z,38.1
2022-11-30T12:51:30.198Z,38.1
2022-11-30T12:52:42.884Z,38.1
2022-11-30T12:53:46.273Z,38.1
2022-11-30T12:54:58.539Z,38.1
2022-11-30T12:56:11.785Z,38.1
2022-11-30T12:57:24.087Z,38.2
2022-11-30T12:58:27.304Z,38.2
2022-11-30T12:59:39.668Z,38.2
2022-11-30T13:00:52.860Z,38.2
2022-11-30T13:01:55.325Z,38.2
2022-11-30T13:03:08.275Z,38.2
2022-11-30T13:04:20.517Z,38.2
2022-11-30T13:05:33.802Z,38.3
2022-11-30T13:06:36.637Z,38.3
2022-11-30T13:07:50.528Z,38.3
2022-11-30T13:09:03.001Z,38.3
2022-11-30T13:10:06.410Z,38.3
2022-11-30T13:11:19.014Z,38.4
2022-11-30T13:12:32.391Z,38.4
2022-11-30T13:13:34.738Z,38.4
2022-11-30T13:14:57.798Z,38.4
2022-11-30T13:16:00.182Z,38.5
2022-11-30T13:17:03.264Z,38.5
2022-11-30T13:18:15.556Z,38.5
2022-11-30T13:19:28.936Z,38.5
2022-11-30T13:20:41.154Z,38.6
2022-11-30T13:21:44.330Z,38.6
2022-11-30T13:22:56.705Z,38.6
2022-11-30T13:24:09.791Z,38.6
2022-11-30T13:25:12.215Z,38.7
2022-11-30T13:26:25.311Z,38.7
2022-11-30T13:27:37.798Z,38.8
2022-11-30T13:28:50.869Z,38.7
2022-11-30T13:29:53.351Z,38.8
2022-11-30T13:31:06.416Z,38.7
2022-11-30T13:32:55.406Z,38.8
2022-11-30T13:33:30.274Z,38.8
2022-11-30T13:34:32.656Z,38.8
2022-11-30T13:35:45.838Z,38.8
2022-11-30T13:36:58.129Z,38.8
2022-11-30T13:38:28.225Z,38.9
2022-11-30T13:39:17.685Z,38.8
2022-11-30T13:40:20.022Z,38.8
2022-11-30T13:41:33.319Z,38.9
2022-11-30T13:42:51.347Z,38.8
2022-11-30T13:43:54.793Z,38.8
2022-11-30T13:45:07.040Z,38.8
2022-11-30T13:46:10.454Z,38.8
2022-11-30T13:47:22.715Z,38.9
2022-11-30T13:48:35.807Z,38.9
2022-11-30T13:49:48.090Z,38.9
2022-11-30T13:50:51.299Z,38.9
2022-11-30T13:52:23.174Z,38.9
2022-11-30T13:53:16.825Z,39.0
2022-11-30T13:54:27.849Z,39.0
2022-11-30T13:55:32.316Z,39.0
2022-11-30T13:56:48.719Z,39.0
2022-11-30T13:57:52.323Z,39.0
2022-11-30T13:59:04.579Z,39.1
2022-11-30T14:00:07.820Z,39.1
2022-11-30T14:01:20.057Z,39.2
2022-11-30T14:02:33.301Z,39.1
2022-11-30T14:03:48.003Z,39.2
2022-11-30T14:04:54.827Z,39.2
2022-11-30T14:05:57.216Z,39.2
2022-11-30T14:07:10.337Z,39.2
2022-11-30T14:08:22.510Z,39.2
2022-11-30T14:09:35.332Z,39.2
2022-11-30T14:10:37.600Z,39.3
2022-11-30T14:11:50.830Z,39.3
2022-11-30T14:13:03.010Z,39.4
2022-11-30T14:14:06.821Z,39.4
2022-11-30T14:15:19.178Z,39.3
2022-11-30T14:16:32.424Z,39.4
2022-11-30T14:17:34.813Z,39.4
2022-11-30T14:18:47.788Z,39.4
2022-11-30T14:20:00.107Z,39.4
2022-11-30T14:21:13.300Z,39.5
2022-11-30T14:22:15.653Z,39.5
2022-11-30T14:23:28.807Z,39.5
2022-11-30T14:24:41.069Z,39.5
2022-11-30T14:25:54.365Z,39.5
2022-11-30T14:26:56.863Z,39.4
2022-11-30T14:28:09.802Z,39.4
2022-11-30T14:29:21.964Z,39.6
2022-11-30T14:30:25.324Z,39.6
2022-11-30T14:31:37.604Z,39.5
2022-11-30T14:32:50.422Z,39.5
2022-11-30T14:33:52.589Z,39.6
2022-11-30T14:35:05.308Z,39.6
2022-11-30T14:36:17.502Z,39.6
2022-11-30T14:37:30.385Z,39.6
2022-11-30T14:38:32.734Z,39.6
2022-11-30T14:39:46.529Z,39.6
2022-11-30T14:40:59.046Z,39.6
2022-11-30T14:42:12.321Z,39.6
2022-11-30T14:43:14.670Z,39.6
2022-11-30T14:44:27.864Z,39.7
2022-11-30T14:45:40.189Z,39.7
2022-11-30T14:46:43.350Z,39.6
2022-11-30T14:47:55.597Z,39.6
2022-11-30T14:49:08.849Z,39.6
2022-11-30T14:50:11.227Z,39.6
2022-11-30T14:51:43.826Z,39.6
2022-11-30T14:52:38.009Z,39.7
2022-11-30T14:53:40.746Z,39.7
2022-11-30T14:54:54.341Z,39.7
2022-11-30T14:56:06.485Z,39.6
2022-11-30T14:57:19.963Z,39.5
2022-11-30T14:58:22.316Z,39.4
2022-11-30T14:59:35.297Z,39.4
2022-11-30T15:00:47.519Z,39.4
2022-11-30T15:01:50.812Z,39.3
2022-11-30T15:03:03.031Z,39.3
2022-11-30T15:04:16.336Z,39.3
2022-11-30T15:05:18.689Z,39.4
2022-11-30T15:06:31.901Z,39.2
2022-11-30T15:07:44.170Z,39.2
2022-11-30T15:08:57.340Z,39.1
2022-11-30T15:09:59.677Z,39.2
2022-11-30T15:11:12.831Z,39.1
2022-11-30T15:12:25.394Z,39.1
2022-11-30T15:13:38.311Z,39.1
2022-11-30T15:14:40.868Z,39.1
2022-11-30T15:15:53.829Z,39.1
2022-11-30T15:17:06.078Z,39.2
2022-11-30T15:18:09.341Z,39.2
2022-11-30T15:19:21.862Z,39.2
2022-11-30T15:20:34.813Z,39.1
2022-11-30T15:21:47.072Z,39.2
2022-11-30T15:22:50.367Z,39.1
2022-11-30T15:24:02.674Z,39.2
2022-11-30T15:25:16.317Z,39.1
2022-11-30T15:26:18.557Z,39.1
2022-11-30T15:27:31.341Z,39.2
2022-11-30T15:28:43.575Z,39.2
2022-11-30T15:29:56.845Z,39.3
2022-11-30T15:30:59.214Z,39.3
2022-11-30T15:32:12.909Z,39.4
2022-11-30T15:33:25.150Z,39.4
2022-11-30T15:34:28.417Z,39.4
2022-11-30T15:36:05.994Z,39.4
2022-11-30T15:36:49.856Z,39.4